sensor_id;sensor_type;location;lat;lon;timestamp;pressure;altitude;pressure_sealevel;temperature;humidity
40460;BME280;26164;51.138;16.952;2022-11-20T00:02:06;78238.50;;;-146.39;100.00
40460;BME280;26164;51.138;16.952;2022-11-20T00:04:40;78226.25;;;-146.39;100.00
40460;BME280;26164;51.138;16.952;2022-11-20T00:07:18;78218.06;;;-146.39;100.00
40460;BME280;26164;51.138;16.952;2022-11-20T00:10:04;78218.06;;;-146.39;100.00
40460;BME280;26164;51.138;16.952;2022-11-20T00:12:52;78224.19;;;-146.39;100.00
40460;BME280;26164;51.138;16.952;2022-11-20T00:15:23;78238.50;;;-146.39;100.00
40460;BME280;26164;51.138;16.952;2022-11-20T00:17:56;78258.91;;;-146.39;100.00
40460;BME280;26164;51.138;16.952;2022-11-20T00:20:27;78263.00;;;-146.39;100.00
40460;BME280;26164;51.138;16.952;2022-11-20T00:23:07;78275.25;;;-146.39;100.00
40460;BME280;26164;51.138;16.952;2022-11-20T00:25:45;78281.38;;;-146.39;100.00
40460;BME280;26164;51.138;16.952;2022-11-20T00:28:24;78279.34;;;-146.39;100.00
40460;BME280;26164;51.138;16.952;2022-11-20T00:31:05;78287.50;;;-146.39;100.00
40460;BME280;26164;51.138;16.952;2022-11-20T00:40:42;78250.75;;;-146.39;100.00
40460;BME280;26164;51.138;16.952;2022-11-20T00:44:08;78244.63;;;-146.39;100.00
40460;BME280;26164;51.138;16.952;2022-11-20T00:46:55;78246.66;;;-146.39;100.00
40460;BME280;26164;51.138;16.952;2022-11-20T00:49:49;78250.75;;;-146.39;100.00
40460;BME280;26164;51.138;16.952;2022-11-20T00:52:33;78242.59;;;-146.39;100.00
40460;BME280;26164;51.138;16.952;2022-11-20T00:55:04;78230.31;;;-146.39;100.00
40460;BME280;26164;51.138;16.952;2022-11-20T00:57:37;78220.13;;;-146.39;100.00
40460;BME280;26164;51.138;16.952;2022-11-20T01:00:13;78228.28;;;-146.39;100.00
40460;BME280;26164;51.138;16.952;2022-11-20T01:02:39;78226.25;;;-146.39;100.00
40460;BME280;26164;51.138;16.952;2022-11-20T01:05:18;78226.25;;;-146.39;100.00
40460;BME280;26164;51.138;16.952;2022-11-20T01:08:06;78242.59;;;-146.39;100.00
40460;BME280;26164;51.138;16.952;2022-11-20T01:10:35;78244.63;;;-146.39;100.00
40460;BME280;26164;51.138;16.952;2022-11-20T01:13:20;78254.84;;;-146.39;100.00
40460;BME280;26164;51.138;16.952;2022-11-20T01:16:42;78250.75;;;-146.39;100.00
40460;BME280;26164;51.138;16.952;2022-11-20T01:20:13;78244.63;;;-146.39;100.00
40460;BME280;26164;51.138;16.952;2022-11-20T01:23:26;78246.66;;;-146.39;100.00
40460;BME280;26164;51.138;16.952;2022-11-20T01:26:21;78258.91;;;-146.39;100.00
40460;BME280;26164;51.138;16.952;2022-11-20T01:29:29;78263.00;;;-146.39;100.00
40460;BME280;26164;51.138;16.952;2022-11-20T01:32:08;78283.44;;;-146.39;100.00
40460;BME280;26164;51.138;16.952;2022-11-20T01:34:46;78287.50;;;-146.39;100.00
40460;BME280;26164;51.138;16.952;2022-11-20T01:37:22;78281.38;;;-146.39;100.00
40460;BME280;26164;51.138;16.952;2022-11-20T01:40:28;78291.59;;;-146.39;100.00
40460;BME280;26164;51.138;16.952;2022-11-20T01:43:14;78303.84;;;-146.39;100.00
40460;BME280;26164;51.138;16.952;2022-11-20T01:50:45;78299.75;;;-146.39;100.00
40460;BME280;26164;51.138;16.952;2022-11-20T01:57:53;78281.38;;;-146.39;100.00
40460;BME280;26164;51.138;16.952;2022-11-20T02:01:02;78291.59;;;-146.39;100.00
40460;BME280;26164;51.138;16.952;2022-11-20T02:04:46;78283.44;;;-146.39;100.00
40460;BME280;26164;51.138;16.952;2022-11-20T02:08:03;78299.75;;;-146.39;100.00
40460;BME280;26164;51.138;16.952;2022-11-20T02:11:19;78307.94;;;-146.39;100.00
40460;BME280;26164;51.138;16.952;2022-11-20T02:13:53;78312.03;;;-146.39;100.00
40460;BME280;26164;51.138;16.952;2022-11-20T02:17:17;78295.69;;;-146.39;100.00
40460;BME280;26164;51.138;16.952;2022-11-20T02:20:11;78312.03;;;-146.39;100.00
40460;BME280;26164;51.138;16.952;2022-11-20T02:26:56;78293.63;;;-146.39;100.00
40460;BME280;26164;51.138;16.952;2022-11-20T02:32:28;78303.84;;;-146.39;100.00
40460;BME280;26164;51.138;16.952;2022-11-20T02:38:08;78336.53;;;-146.39;100.00
40460;BME280;26164;51.138;16.952;2022-11-20T02:40:55;78328.34;;;-146.39;100.00
40460;BME280;26164;51.138;16.952;2022-11-20T02:43:38;78332.44;;;-146.39;100.00
40460;BME280;26164;51.138;16.952;2022-11-20T02:46:24;78342.66;;;-146.39;100.00
40460;BME280;26164;51.138;16.952;2022-11-20T02:49:29;78361.03;;;-146.39;100.00
40460;BME280;26164;51.138;16.952;2022-11-20T02:52:41;78361.03;;;-146.39;100.00
40460;BME280;26164;51.138;16.952;2022-11-20T02:55:22;78352.88;;;-146.39;100.00
40460;BME280;26164;51.138;16.952;2022-11-20T02:57:51;78344.69;;;-146.39;100.00
40460;BME280;26164;51.138;16.952;2022-11-20T03:00:27;78350.81;;;-146.39;100.00
40460;BME280;26164;51.138;16.952;2022-11-20T03:03:14;78352.88;;;-146.39;100.00
40460;BME280;26164;51.138;16.952;2022-11-20T03:05:59;78348.78;;;-146.39;100.00
40460;BME280;26164;51.138;16.952;2022-11-20T03:09:01;78352.88;;;-146.39;100.00
40460;BME280;26164;51.138;16.952;2022-11-20T03:11:29;78356.94;;;-146.39;100.00
40460;BME280;26164;51.138;16.952;2022-11-20T03:14:02;78348.78;;;-146.39;100.00
40460;BME280;26164;51.138;16.952;2022-11-20T03:16:32;78348.78;;;-146.39;100.00
40460;BME280;26164;51.138;16.952;2022-11-20T03:19:00;78344.69;;;-146.39;100.00
40460;BME280;26164;51.138;16.952;2022-11-20T03:21:27;78344.69;;;-146.39;100.00
40460;BME280;26164;51.138;16.952;2022-11-20T03:23:54;78348.78;;;-146.39;100.00
40460;BME280;26164;51.138;16.952;2022-11-20T03:26:27;78344.69;;;-146.39;100.00
40460;BME280;26164;51.138;16.952;2022-11-20T03:28:58;78332.44;;;-146.39;100.00
40460;BME280;26164;51.138;16.952;2022-11-20T03:31:30;78344.69;;;-146.39;100.00
40460;BME280;26164;51.138;16.952;2022-11-20T03:34:07;78324.28;;;-146.39;100.00
40460;BME280;26164;51.138;16.952;2022-11-20T03:36:33;78328.34;;;-146.39;100.00
40460;BME280;26164;51.138;16.952;2022-11-20T03:38:59;78320.19;;;-146.39;100.00
40460;BME280;26164;51.138;16.952;2022-11-20T03:41:28;78320.19;;;-146.39;100.00
40460;BME280;26164;51.138;16.952;2022-11-20T03:43:59;78324.28;;;-146.39;100.00
40460;BME280;26164;51.138;16.952;2022-11-20T03:46:28;78328.34;;;-146.39;100.00
40460;BME280;26164;51.138;16.952;2022-11-20T03:49:06;78338.56;;;-146.39;100.00
40460;BME280;26164;51.138;16.952;2022-11-20T03:51:48;78354.91;;;-146.39;100.00
40460;BME280;26164;51.138;16.952;2022-11-20T03:54:31;78365.13;;;-146.39;100.00
40460;BME280;26164;51.138;16.952;2022-11-20T03:57:22;78381.47;;;-146.39;100.00
40460;BME280;26164;51.138;16.952;2022-11-20T04:00:13;78381.47;;;-146.39;100.00
40460;BME280;26164;51.138;16.952;2022-11-20T04:02:39;78385.56;;;-146.39;100.00
40460;BME280;26164;51.138;16.952;2022-11-20T04:05:05;78395.75;;;-146.39;100.00
40460;BME280;26164;51.138;16.952;2022-11-20T04:07:33;78397.81;;;-146.39;100.00
40460;BME280;26164;51.138;16.952;2022-11-20T04:09:59;78412.09;;;-146.39;100.00
40460;BME280;26164;51.138;16.952;2022-11-20T04:12:25;78418.22;;;-146.39;100.00
40460;BME280;26164;51.138;16.952;2022-11-20T04:14:54;78426.41;;;-146.39;100.00
40460;BME280;26164;51.138;16.952;2022-11-20T04:17:20;78426.41;;;-146.39;100.00
40460;BME280;26164;51.138;16.952;2022-11-20T04:19:46;78430.47;;;-146.39;100.00
40460;BME280;26164;51.138;16.952;2022-11-20T04:22:12;78432.53;;;-146.39;100.00
40460;BME280;26164;51.138;16.952;2022-11-20T04:24:38;78434.56;;;-146.39;100.00
40460;BME280;26164;51.138;16.952;2022-11-20T04:27:04;78438.66;;;-146.39;100.00
40460;BME280;26164;51.138;16.952;2022-11-20T04:29:30;78428.44;;;-146.39;100.00
40460;BME280;26164;51.138;16.952;2022-11-20T04:31:56;78430.47;;;-146.39;100.00
40460;BME280;26164;51.138;16.952;2022-11-20T04:34:23;78430.47;;;-146.39;100.00
40460;BME280;26164;51.138;16.952;2022-11-20T04:36:52;78430.47;;;-146.39;100.00
40460;BME280;26164;51.138;16.952;2022-11-20T04:39:18;78412.09;;;-146.39;100.00
40460;BME280;26164;51.138;16.952;2022-11-20T04:41:44;78405.97;;;-146.39;100.00
40460;BME280;26164;51.138;16.952;2022-11-20T04:44:12;78389.63;;;-146.39;100.00
40460;BME280;26164;51.138;16.952;2022-11-20T04:46:41;78371.25;;;-146.39;100.00
40460;BME280;26164;51.138;16.952;2022-11-20T04:49:11;78369.22;;;-146.39;100.00
40460;BME280;26164;51.138;16.952;2022-11-20T04:51:40;78369.22;;;-146.39;100.00
40460;BME280;26164;51.138;16.952;2022-11-20T04:54:05;78373.28;;;-146.39;100.00
40460;BME280;26164;51.138;16.952;2022-11-20T04:56:31;78361.03;;;-146.39;100.00
40460;BME280;26164;51.138;16.952;2022-11-20T04:59:00;78361.03;;;-146.39;100.00
40460;BME280;26164;51.138;16.952;2022-11-20T05:01:27;78381.47;;;-146.39;100.00
40460;BME280;26164;51.138;16.952;2022-11-20T05:03:53;78389.63;;;-146.39;100.00
40460;BME280;26164;51.138;16.952;2022-11-20T05:06:20;78373.28;;;-146.39;100.00
40460;BME280;26164;51.138;16.952;2022-11-20T05:08:48;78363.09;;;-146.39;100.00
40460;BME280;26164;51.138;16.952;2022-11-20T05:11:17;78348.78;;;-146.39;100.00
40460;BME280;26164;51.138;16.952;2022-11-20T05:13:43;78340.63;;;-146.39;100.00
40460;BME280;26164;51.138;16.952;2022-11-20T05:16:14;78340.63;;;-146.39;100.00
40460;BME280;26164;51.138;16.952;2022-11-20T05:18:42;78324.28;;;-146.39;100.00
40460;BME280;26164;51.138;16.952;2022-11-20T05:21:11;78324.28;;;-146.39;100.00
40460;BME280;26164;51.138;16.952;2022-11-20T05:23:41;78324.28;;;-146.39;100.00
40460;BME280;26164;51.138;16.952;2022-11-20T05:26:12;78324.28;;;-146.39;100.00
40460;BME280;26164;51.138;16.952;2022-11-20T05:28:39;78312.03;;;-146.39;100.00
40460;BME280;26164;51.138;16.952;2022-11-20T05:31:12;78324.28;;;-146.39;100.00
40460;BME280;26164;51.138;16.952;2022-11-20T05:33:42;78332.44;;;-146.39;100.00
40460;BME280;26164;51.138;16.952;2022-11-20T05:36:08;78340.63;;;-146.39;100.00
40460;BME280;26164;51.138;16.952;2022-11-20T05:38:35;78324.28;;;-146.39;100.00
40460;BME280;26164;51.138;16.952;2022-11-20T05:41:12;78328.34;;;-146.39;100.00
40460;BME280;26164;51.138;16.952;2022-11-20T05:43:43;78328.34;;;-146.39;100.00
40460;BME280;26164;51.138;16.952;2022-11-20T05:46:11;78316.09;;;-146.39;100.00
40460;BME280;26164;51.138;16.952;2022-11-20T05:48:42;78340.63;;;-146.39;100.00
40460;BME280;26164;51.138;16.952;2022-11-20T05:51:10;78342.66;;;-146.39;100.00
40460;BME280;26164;51.138;16.952;2022-11-20T05:53:37;78356.94;;;-146.39;100.00
40460;BME280;26164;51.138;16.952;2022-11-20T05:56:09;78373.28;;;-146.39;100.00
40460;BME280;26164;51.138;16.952;2022-11-20T05:58:38;78387.59;;;-146.39;100.00
40460;BME280;26164;51.138;16.952;2022-11-20T06:01:15;78405.97;;;-146.39;100.00
40460;BME280;26164;51.138;16.952;2022-11-20T06:03:52;78418.22;;;-146.39;100.00
40460;BME280;26164;51.138;16.952;2022-11-20T06:06:21;78436.59;;;-146.39;100.00
40460;BME280;26164;51.138;16.952;2022-11-20T06:08:51;78446.81;;;-146.39;100.00
40460;BME280;26164;51.138;16.952;2022-11-20T06:11:25;78446.81;;;-146.39;100.00
40460;BME280;26164;51.138;16.952;2022-11-20T06:13:57;78442.75;;;-146.39;100.00
40460;BME280;26164;51.138;16.952;2022-11-20T06:16:25;78432.53;;;-146.39;100.00
40460;BME280;26164;51.138;16.952;2022-11-20T06:18:57;78426.41;;;-146.39;100.00
40460;BME280;26164;51.138;16.952;2022-11-20T06:21:33;78426.41;;;-146.39;100.00
40460;BME280;26164;51.138;16.952;2022-11-20T06:24:37;78434.56;;;-146.39;100.00
40460;BME280;26164;51.138;16.952;2022-11-20T06:27:12;78434.56;;;-146.39;100.00
40460;BME280;26164;51.138;16.952;2022-11-20T06:29:38;78438.66;;;-146.39;100.00
40460;BME280;26164;51.138;16.952;2022-11-20T06:32:40;78446.81;;;-146.39;100.00
40460;BME280;26164;51.138;16.952;2022-11-20T06:36:00;78442.75;;;-146.39;100.00
40460;BME280;26164;51.138;16.952;2022-11-20T06:42:24;78438.66;;;-146.39;100.00
40460;BME280;26164;51.138;16.952;2022-11-20T06:45:06;78440.69;;;-146.39;100.00
40460;BME280;26164;51.138;16.952;2022-11-20T06:48:22;78440.69;;;-146.39;100.00
40460;BME280;26164;51.138;16.952;2022-11-20T06:51:09;78442.75;;;-146.39;100.00
40460;BME280;26164;51.138;16.952;2022-11-20T06:53:40;78438.66;;;-146.39;100.00
40460;BME280;26164;51.138;16.952;2022-11-20T06:56:08;78418.22;;;-146.39;100.00
40460;BME280;26164;51.138;16.952;2022-11-20T06:59:23;78393.72;;;-146.39;100.00
40460;BME280;26164;51.138;16.952;2022-11-20T07:02:17;78381.47;;;-146.39;100.00
40460;BME280;26164;51.138;16.952;2022-11-20T07:07:45;78365.13;;;-146.39;100.00
40460;BME280;26164;51.138;16.952;2022-11-20T07:11:03;78363.09;;;-146.39;100.00
40460;BME280;26164;51.138;16.952;2022-11-20T13:29:44;76664.16;;;-146.39;57.15
40460;BME280;26164;51.138;16.952;2022-11-20T13:47:52;76702.94;;;-146.39;57.39
40460;BME280;26164;51.138;16.952;2022-11-20T14:01:45;76780.53;;;-146.39;59.40
40460;BME280;26164;51.138;16.952;2022-11-20T14:04:58;76776.44;;;-146.39;59.59
40460;BME280;26164;51.138;16.952;2022-11-20T14:08:56;76786.66;;;-146.39;59.40
40460;BME280;26164;51.138;16.952;2022-11-20T14:12:12;76796.84;;;-146.39;59.95
40460;BME280;26164;51.138;16.952;2022-11-20T14:15:36;76796.84;;;-146.39;60.12
40460;BME280;26164;51.138;16.952;2022-11-20T14:35:28;76929.56;;;-146.39;63.54
40460;BME280;26164;51.138;16.952;2022-11-20T14:42:47;77017.34;;;-146.39;67.78
40460;BME280;26164;51.138;16.952;2022-11-20T15:15:12;77356.28;;;-146.39;88.97
40460;BME280;26164;51.138;16.952;2022-11-20T15:21:48;77384.88;;;-146.39;93.09
40460;BME280;26164;51.138;16.952;2022-11-20T15:24:56;77391.00;;;-146.39;95.62
40460;BME280;26164;51.138;16.952;2022-11-20T15:28:01;77384.88;;;-146.39;98.77
40460;BME280;26164;51.138;16.952;2022-11-20T15:30:57;77393.06;;;-146.39;100.00
40460;BME280;26164;51.138;16.952;2022-11-20T15:33:52;77397.13;;;-146.39;100.00
40460;BME280;26164;51.138;16.952;2022-11-20T15:36:50;77409.38;;;-146.39;100.00
40460;BME280;26164;51.138;16.952;2022-11-20T15:39:56;77417.56;;;-146.39;100.00
40460;BME280;26164;51.138;16.952;2022-11-20T15:43:18;77431.84;;;-146.39;100.00
40460;BME280;26164;51.138;16.952;2022-11-20T15:53:51;77446.13;;;-146.39;100.00
40460;BME280;26164;51.138;16.952;2022-11-20T16:00:49;77480.84;;;-146.39;100.00
40460;BME280;26164;51.138;16.952;2022-11-20T16:04:11;77486.97;;;-146.39;100.00
40460;BME280;26164;51.138;16.952;2022-11-20T16:07:18;77493.09;;;-146.39;100.00
40460;BME280;26164;51.138;16.952;2022-11-20T16:10:30;77491.06;;;-146.39;100.00
40460;BME280;26164;51.138;16.952;2022-11-20T16:14:05;77454.31;;;-146.39;100.00
40460;BME280;26164;51.138;16.952;2022-11-20T17:11:11;77540.06;;;-146.39;100.00
40460;BME280;26164;51.138;16.952;2022-11-20T17:14:07;77548.25;;;-146.39;100.00
40460;BME280;26164;51.138;16.952;2022-11-20T17:17:58;77548.25;;;-146.39;100.00
40460;BME280;26164;51.138;16.952;2022-11-20T17:21:13;77556.41;;;-146.39;100.00
40460;BME280;26164;51.138;16.952;2022-11-20T17:42:46;77595.22;;;-146.39;100.00
40460;BME280;26164;51.138;16.952;2022-11-20T17:45:32;77589.09;;;-146.39;100.00
40460;BME280;26164;51.138;16.952;2022-11-20T18:15:26;77631.97;;;-146.39;100.00
40460;BME280;26164;51.138;16.952;2022-11-20T18:18:15;77634.00;;;-146.39;100.00
40460;BME280;26164;51.138;16.952;2022-11-20T18:20:43;77642.19;;;-146.39;100.00
40460;BME280;26164;51.138;16.952;2022-11-20T18:23:35;77650.34;;;-146.39;100.00
40460;BME280;26164;51.138;16.952;2022-11-20T18:26:17;77658.50;;;-146.39;100.00
40460;BME280;26164;51.138;16.952;2022-11-20T18:29:38;77660.56;;;-146.39;100.00
40460;BME280;26164;51.138;16.952;2022-11-20T18:32:20;77666.69;;;-146.39;100.00
40460;BME280;26164;51.138;16.952;2022-11-20T18:34:58;77674.84;;;-146.39;100.00
40460;BME280;26164;51.138;16.952;2022-11-20T18:37:44;77676.88;;;-146.39;100.00
40460;BME280;26164;51.138;16.952;2022-11-20T18:40:49;77670.75;;;-146.39;100.00
40460;BME280;26164;51.138;16.952;2022-11-20T18:43:16;77662.59;;;-146.39;100.00
40460;BME280;26164;51.138;16.952;2022-11-20T18:46:03;77666.69;;;-146.39;100.00
40460;BME280;26164;51.138;16.952;2022-11-20T18:48:32;77670.75;;;-146.39;100.00
40460;BME280;26164;51.138;16.952;2022-11-20T18:51:07;77674.84;;;-146.39;100.00
40460;BME280;26164;51.138;16.952;2022-11-20T18:53:38;77672.81;;;-146.39;100.00
40460;BME280;26164;51.138;16.952;2022-11-20T18:56:06;77646.25;;;-146.39;100.00
40460;BME280;26164;51.138;16.952;2022-11-20T18:58:34;77640.13;;;-146.39;100.00
40460;BME280;26164;51.138;16.952;2022-11-20T19:01:06;77613.59;;;-146.39;100.00
40460;BME280;26164;51.138;16.952;2022-11-20T19:03:36;77597.25;;;-146.39;100.00
40460;BME280;26164;51.138;16.952;2022-11-20T19:06:12;77603.38;;;-146.39;100.00
40460;BME280;26164;51.138;16.952;2022-11-20T19:08:41;77597.25;;;-146.39;100.00
40460;BME280;26164;51.138;16.952;2022-11-20T19:11:09;77601.34;;;-146.39;100.00
40460;BME280;26164;51.138;16.952;2022-11-20T19:13:38;77605.41;;;-146.39;100.00
40460;BME280;26164;51.138;16.952;2022-11-20T19:16:17;77605.41;;;-146.39;100.00
40460;BME280;26164;51.138;16.952;2022-11-20T19:18:51;77601.34;;;-146.39;100.00
40460;BME280;26164;51.138;16.952;2022-11-20T19:21:26;77611.53;;;-146.39;100.00
40460;BME280;26164;51.138;16.952;2022-11-20T19:24:10;77611.53;;;-146.39;100.00
40460;BME280;26164;51.138;16.952;2022-11-20T19:26:44;77619.72;;;-146.39;100.00
40460;BME280;26164;51.138;16.952;2022-11-20T19:29:51;77617.66;;;-146.39;100.00
40460;BME280;26164;51.138;16.952;2022-11-20T19:32:56;77613.59;;;-146.39;100.00
40460;BME280;26164;51.138;16.952;2022-11-20T19:36:42;77607.47;;;-146.39;100.00
40460;BME280;26164;51.138;16.952;2022-11-20T19:39:29;77609.50;;;-146.39;100.00
40460;BME280;26164;51.138;16.952;2022-11-20T19:42:35;77607.47;;;-146.39;100.00
40460;BME280;26164;51.138;16.952;2022-11-20T19:49:58;77619.72;;;-146.39;100.00
40460;BME280;26164;51.138;16.952;2022-11-20T19:53:45;77625.84;;;-146.39;100.00
40460;BME280;26164;51.138;16.952;2022-11-20T19:56:48;77644.22;;;-146.39;100.00
40460;BME280;26164;51.138;16.952;2022-11-20T20:00:02;77650.34;;;-146.39;100.00
40460;BME280;26164;51.138;16.952;2022-11-20T20:03:49;77658.50;;;-146.39;100.00
40460;BME280;26164;51.138;16.952;2022-11-20T20:07:22;77662.59;;;-146.39;100.00
40460;BME280;26164;51.138;16.952;2022-11-20T20:10:09;77658.50;;;-146.39;100.00
40460;BME280;26164;51.138;16.952;2022-11-20T20:13:31;77672.81;;;-146.39;100.00
40460;BME280;26164;51.138;16.952;2022-11-20T20:16:47;77680.97;;;-146.39;100.00
40460;BME280;26164;51.138;16.952;2022-11-20T20:20:01;77687.09;;;-146.39;100.00
40460;BME280;26164;51.138;16.952;2022-11-20T20:27:11;77674.84;;;-146.39;100.00
40460;BME280;26164;51.138;16.952;2022-11-20T20:30:10;77646.25;;;-146.39;100.00
40460;BME280;26164;51.138;16.952;2022-11-20T20:36:17;77642.19;;;-146.39;100.00
